createdAt,value
2023-01-08T00:02:19.006Z,99670.59
2023-01-08T00:05:20.986Z,99679.28
2023-01-08T00:08:22.701Z,99667.34
2023-01-08T00:11:25.963Z,99666.94
2023-01-08T00:14:27.728Z,99654.75
2023-01-08T00:17:29.548Z,99651.19
2023-01-08T00:20:31.286Z,99648.22
2023-01-08T00:23:34.063Z,99648.06
2023-01-08T00:26:37.228Z,99641.91
2023-01-08T00:29:38.982Z,99639.28
2023-01-08T00:32:40.735Z,99629.03
2023-01-08T00:35:42.778Z,99624.97
2023-01-08T00:38:45.875Z,99622.91
2023-01-08T00:41:49.667Z,99618.44
2023-01-08T00:44:51.663Z,99611.47
2023-01-08T00:47:53.556Z,99612.53
2023-01-08T00:50:55.308Z,99603.47
2023-01-08T00:53:57.019Z,99603.84
2023-01-08T00:57:00.104Z,99595.22
2023-01-08T01:00:02.288Z,99587.72
2023-01-08T01:03:04.263Z,99591.34
2023-01-08T01:06:07.311Z,99588.47
2023-01-08T01:09:09.465Z,99599.50
2023-01-08T01:12:12.603Z,99609.47
2023-01-08T01:15:17.318Z,99614.75
2023-01-08T01:18:19.015Z,99614.34
2023-01-08T01:21:23.950Z,99601.09
2023-01-08T01:24:25.494Z,99590.22
2023-01-08T01:27:28.514Z,99594.31
2023-01-08T01:30:30.265Z,99599.25
2023-01-08T01:33:31.928Z,99611.56
2023-01-08T01:36:33.614Z,99627.81
2023-01-08T01:39:35.300Z,99632.94
2023-01-08T01:42:41.307Z,99641.19
2023-01-08T01:45:43.654Z,99647.59
2023-01-08T01:48:46.906Z,99644.53
2023-01-08T01:51:52.423Z,99647.03
2023-01-08T01:54:54.997Z,99634.44
2023-01-08T01:58:04.759Z,99627.88
2023-01-08T02:01:08.708Z,99629.06
2023-01-08T02:04:11.955Z,99621.66
2023-01-08T02:07:20.371Z,99622.59
2023-01-08T02:10:29.708Z,99617.63
2023-01-08T02:13:37.654Z,99611.31
2023-01-08T02:16:44.603Z,99611.41
2023-01-08T02:19:50.893Z,99608.19
2023-01-08T02:23:07.267Z,99599.94
2023-01-08T02:26:17.192Z,99588.16
2023-01-08T02:29:22.296Z,99594.47
2023-01-08T02:32:26.676Z,99585.72
2023-01-08T02:35:37.061Z,99591.47
2023-01-08T02:38:47.348Z,99587.19
2023-01-08T02:42:05.630Z,99589.28
2023-01-08T02:45:20.193Z,99585.41
2023-01-08T02:48:29.978Z,99577.03
2023-01-08T02:51:40.015Z,99573.53
2023-01-08T02:54:43.847Z,99584.00
2023-01-08T02:57:47.449Z,99574.69
2023-01-08T03:00:50.647Z,99573.09
2023-01-08T03:03:56.033Z,99571.50
2023-01-08T03:06:57.776Z,99560.50
2023-01-08T03:09:59.716Z,99560.13
2023-01-08T03:13:06.337Z,99551.31
2023-01-08T03:16:12.057Z,99544.53
2023-01-08T03:19:19.698Z,99539.16
2023-01-08T03:22:23.374Z,99533.66
2023-01-08T03:25:28.446Z,99532.59
2023-01-08T03:28:36.964Z,99510.03
2023-01-08T03:31:40.586Z,99493.38
2023-01-08T03:34:45.521Z,99499.00
2023-01-08T03:37:54.423Z,99507.44
2023-01-08T03:41:00.048Z,99512.25
2023-01-08T03:44:04.416Z,99498.88
2023-01-08T03:47:10.229Z,99499.31
2023-01-08T03:50:22.885Z,99496.84
2023-01-08T03:53:24.583Z,99501.06
2023-01-08T03:56:26.191Z,99491.59
2023-01-08T03:59:29.323Z,99486.09
2023-01-08T04:02:31.137Z,99485.34
2023-01-08T04:05:33.158Z,99478.25
2023-01-08T04:08:34.904Z,99471.03
2023-01-08T04:11:36.645Z,99465.16
2023-01-08T04:14:39.934Z,99465.41
2023-01-08T04:17:41.632Z,99462.53
2023-01-08T04:20:45.499Z,99471.59
2023-01-08T04:23:47.639Z,99468.94
2023-01-08T04:26:49.267Z,99467.91
2023-01-08T04:29:52.282Z,99472.84
2023-01-08T04:32:53.964Z,99469.31
2023-01-08T04:35:55.571Z,99458.97
2023-01-08T04:38:57.193Z,99468.91
2023-01-08T04:41:58.843Z,99469.81
2023-01-08T04:45:01.840Z,99472.72
2023-01-08T04:48:03.502Z,99471.13
2023-01-08T04:51:05.584Z,99475.88
2023-01-08T04:54:07.246Z,99477.94
2023-01-08T04:57:08.902Z,99471.38
2023-01-08T05:00:13.513Z,99476.22
2023-01-08T05:03:15.221Z,99479.34
2023-01-08T05:06:16.987Z,99481.84
2023-01-08T05:09:18.578Z,99473.28
2023-01-08T05:12:20.385Z,99476.56
2023-01-08T05:15:23.334Z,99485.38
2023-01-08T05:18:24.923Z,99474.53
2023-01-08T05:21:26.600Z,99477.66
2023-01-08T05:24:28.213Z,99481.53
2023-01-08T05:27:29.789Z,99484.03
2023-01-08T05:30:32.784Z,99488.19
2023-01-08T05:33:34.476Z,99491.63
2023-01-08T05:36:36.102Z,99488.56
2023-01-08T05:39:38.217Z,99478.38
2023-01-08T05:42:40.015Z,99480.59
2023-01-08T05:45:43.146Z,99478.38
2023-01-08T05:48:44.826Z,99480.72
2023-01-08T05:51:46.482Z,99470.75
2023-01-08T05:54:48.136Z,99476.25
2023-01-08T05:57:50.151Z,99489.47
2023-01-08T06:00:53.515Z,99484.91
2023-01-08T06:03:55.843Z,99481.22
2023-01-08T06:06:57.487Z,99477.06
2023-01-08T06:09:59.154Z,99474.28
2023-01-08T06:13:00.860Z,99471.53
2023-01-08T06:16:04.422Z,99472.03
2023-01-08T06:19:06.178Z,99466.94
2023-01-08T06:22:07.834Z,99448.22
2023-01-08T06:25:09.883Z,99453.06
2023-01-08T06:28:11.631Z,99447.03
2023-01-08T06:31:14.664Z,99449.75
2023-01-08T06:34:16.421Z,99450.84
2023-01-08T06:37:18.004Z,99451.25
2023-01-08T06:40:19.744Z,99457.81
2023-01-08T06:43:23.987Z,99459.78
2023-01-08T06:46:27.364Z,99456.63
2023-01-08T06:49:29.039Z,99454.16
2023-01-08T06:52:30.727Z,99447.59
2023-01-08T06:55:32.417Z,99464.25
2023-01-08T06:58:34.136Z,99477.06
2023-01-08T07:01:37.218Z,99478.38
2023-01-08T07:04:38.902Z,99467.00
2023-01-08T07:07:40.523Z,99473.00
2023-01-08T07:10:42.269Z,99478.09
2023-01-08T07:13:43.902Z,99474.97
2023-01-08T07:16:46.915Z,99472.34
2023-01-08T07:19:48.617Z,99477.09
2023-01-08T07:22:50.291Z,99472.28
2023-01-08T07:25:51.947Z,99485.19
2023-01-08T07:28:53.633Z,99486.66
2023-01-08T07:31:56.677Z,99486.22
2023-01-08T07:34:59.166Z,99483.34
2023-01-08T07:38:00.950Z,99484.91
2023-01-08T07:41:02.671Z,99479.69
2023-01-08T07:44:04.549Z,99491.69
2023-01-08T07:47:07.627Z,99485.25
2023-01-08T07:50:09.792Z,99490.78
2023-01-08T07:53:13.601Z,99495.22
2023-01-08T07:56:15.343Z,99492.31
2023-01-08T07:59:17.025Z,99495.72
2023-01-08T08:02:20.211Z,99496.50
2023-01-08T08:05:22.016Z,99497.41
2023-01-08T08:08:23.715Z,99497.56
2023-01-08T08:11:25.381Z,99500.31
2023-01-08T08:14:27.079Z,99503.06
2023-01-08T08:17:30.136Z,99491.69
2023-01-08T08:20:32.472Z,99490.47
2023-01-08T08:23:36.457Z,99498.31
2023-01-08T08:26:38.416Z,99473.25
2023-01-08T08:29:40.075Z,99476.00
2023-01-08T08:32:43.137Z,99476.88
2023-01-08T08:35:50.152Z,99482.28
2023-01-08T08:38:51.846Z,99476.69
2023-01-08T08:41:53.559Z,99477.47
2023-01-08T08:44:55.277Z,99472.22
2023-01-08T08:47:58.428Z,99472.09
2023-01-08T08:51:00.103Z,99482.56
2023-01-08T08:54:01.815Z,99477.19
2023-01-08T08:57:03.604Z,99467.00
2023-01-08T09:00:06.506Z,99471.59
2023-01-08T09:03:12.751Z,99468.06
2023-01-08T09:06:15.062Z,99469.88
2023-01-08T09:09:16.809Z,99469.09
2023-01-08T09:12:18.730Z,99467.56
2023-01-08T09:15:20.451Z,99472.28
2023-01-08T09:18:23.473Z,99472.41
2023-01-08T09:21:25.132Z,99465.34
2023-01-08T09:24:26.776Z,99460.88
2023-01-08T09:27:28.648Z,99466.38
2023-01-08T09:30:30.860Z,99468.34
2023-01-08T09:33:34.291Z,99466.94
2023-01-08T09:36:36.033Z,99466.59
2023-01-08T09:39:37.677Z,99473.16
2023-01-08T09:42:39.627Z,99474.50
2023-01-08T09:45:43.461Z,99470.94
2023-01-08T09:48:46.617Z,99459.16
2023-01-08T09:51:48.473Z,99461.91
2023-01-08T09:54:50.147Z,99456.97
2023-01-08T09:57:51.980Z,99460.38
2023-01-08T10:00:54.838Z,99448.75
2023-01-08T10:04:04.427Z,99448.06
2023-01-08T10:07:14.289Z,99450.03
2023-01-08T10:10:19.589Z,99454.38
2023-01-08T10:13:21.269Z,99458.53
2023-01-08T10:16:28.914Z,99456.16
2023-01-08T10:19:32.048Z,99455.66
2023-01-08T10:22:34.265Z,99451.34
2023-01-08T10:25:48.774Z,99456.59
2023-01-08T10:28:50.465Z,99454.38
2023-01-08T10:31:54.890Z,99449.91
2023-01-08T10:34:59.084Z,99442.34
2023-01-08T10:38:01.792Z,99444.97
2023-01-08T10:41:05.778Z,99441.94
2023-01-08T10:44:16.395Z,99442.97
2023-01-08T10:47:19.106Z,99437.88
2023-01-08T10:50:24.575Z,99432.50
2023-01-08T10:53:29.081Z,99431.06
2023-01-08T10:56:40.463Z,99427.16
2023-01-08T10:59:42.463Z,99417.97
2023-01-08T11:02:50.353Z,99407.38
2023-01-08T11:05:53.374Z,99390.19
2023-01-08T11:08:57.833Z,99401.75
2023-01-08T11:12:00.559Z,99389.53
2023-01-08T11:15:03.436Z,99391.09
2023-01-08T11:18:20.162Z,99383.91
2023-01-08T11:21:26.355Z,99382.19
2023-01-08T11:24:30.710Z,99385.72
2023-01-08T11:27:36.972Z,99377.56
2023-01-08T11:30:39.488Z,99365.94
2023-01-08T11:33:44.606Z,99359.13
2023-01-08T11:36:52.949Z,99346.06
2023-01-08T11:39:55.610Z,99318.75
2023-01-08T11:43:17.580Z,99323.16
2023-01-08T11:46:33.560Z,99318.03
2023-01-08T11:49:55.137Z,99302.41
2023-01-08T11:53:13.040Z,99297.84
2023-01-08T11:56:25.535Z,99308.63
2023-01-08T11:59:39.751Z,99302.66
2023-01-08T12:02:54.106Z,99302.19
2023-01-08T12:06:04.873Z,99290.09
2023-01-08T12:09:16.782Z,99282.88
2023-01-08T12:12:29.459Z,99272.06
2023-01-08T12:15:40.907Z,99281.22
2023-01-08T12:18:57.191Z,99280.50
2023-01-08T12:22:12.788Z,99279.72
2023-01-08T12:25:41.492Z,99267.53
2023-01-08T12:29:02.833Z,99260.13
2023-01-08T12:32:36.346Z,99259.81
2023-01-08T12:35:40.752Z,99254.28
2023-01-08T12:38:44.845Z,99248.75
2023-01-08T13:02:07.286Z,99229.16
2023-01-08T13:05:14.149Z,99228.13
2023-01-08T13:08:27.671Z,99230.22
2023-01-08T13:11:31.754Z,99225.50
2023-01-08T13:14:41.412Z,99225.03
2023-01-08T13:17:48.166Z,99223.22
2023-01-08T13:20:56.665Z,99228.31
2023-01-08T13:24:05.277Z,99219.31
2023-01-08T13:27:12.177Z,99218.16
2023-01-08T13:30:39.453Z,99217.25
2023-01-08T13:37:28.062Z,99190.38
2023-01-08T13:40:51.877Z,99194.06
2023-01-08T13:44:00.399Z,99189.16
2023-01-08T13:47:04.403Z,99180.50
2023-01-08T13:50:18.190Z,99179.84
2023-01-08T13:53:21.053Z,99172.88
2023-01-08T13:56:24.109Z,99169.78
2023-01-08T13:59:36.980Z,99186.38
2023-01-08T14:02:55.271Z,99177.94
2023-01-08T14:06:06.687Z,99169.06
2023-01-08T14:09:20.455Z,99173.69
2023-01-08T14:12:24.956Z,99173.09
2023-01-08T14:15:28.502Z,99166.56
2023-01-08T14:18:30.174Z,99159.34
2023-01-08T14:21:32.246Z,99154.09
2023-01-08T14:24:33.950Z,99147.81
2023-01-08T14:27:36.936Z,99147.91
2023-01-08T14:30:47.750Z,99145.56
2023-01-08T14:33:53.313Z,99147.41
2023-01-08T14:36:56.055Z,99145.91
2023-01-08T14:39:57.706Z,99151.81
2023-01-08T14:43:06.500Z,99144.22
2023-01-08T14:46:18.530Z,99135.53
2023-01-08T14:49:24.232Z,99129.38
2023-01-08T14:52:26.271Z,99136.34
2023-01-08T14:55:29.345Z,99136.56
2023-01-08T14:58:36.827Z,99138.88
2023-01-08T15:01:39.106Z,99131.81
2023-01-08T15:04:40.832Z,99126.81
2023-01-08T15:07:45.007Z,99128.88
2023-01-08T15:10:57.950Z,99122.59
2023-01-08T15:14:12.103Z,99122.94
2023-01-08T15:17:18.423Z,99125.19
2023-01-08T15:20:23.404Z,99119.72
2023-01-08T15:23:28.462Z,99115.81
2023-01-08T15:26:30.721Z,99104.97
2023-01-08T15:29:33.821Z,99103.03
2023-01-08T15:32:37.419Z,99106.22
2023-01-08T15:35:39.123Z,99098.78
2023-01-08T15:38:42.998Z,99090.78
2023-01-08T15:42:03.411Z,99102.19
2023-01-08T15:45:12.390Z,99100.13
2023-01-08T15:48:14.548Z,99099.91
2023-01-08T15:51:16.212Z,99098.31
2023-01-08T15:54:21.223Z,99099.19
2023-01-08T15:57:23.017Z,99089.94
2023-01-08T16:02:03.294Z,99072.97
2023-01-08T16:05:05.772Z,99064.16
2023-01-08T16:08:07.670Z,99078.22
2023-01-08T16:11:09.434Z,99057.22
2023-01-08T16:14:11.194Z,99066.78
2023-01-08T16:17:14.329Z,99063.25
2023-01-08T16:20:17.041Z,99046.97
2023-01-08T16:23:19.082Z,99053.56
2023-01-08T16:26:21.236Z,99048.44
2023-01-08T16:29:23.087Z,99044.78
2023-01-08T16:32:26.310Z,99050.94
2023-01-08T16:35:28.061Z,99044.69
2023-01-08T16:38:31.663Z,99042.97
2023-01-08T16:41:35.234Z,99039.88
2023-01-08T16:44:37.268Z,99040.13
2023-01-08T16:47:40.436Z,99040.13
2023-01-08T16:50:43.165Z,99042.63
2023-01-08T16:53:44.750Z,99042.41
2023-01-08T16:56:46.363Z,99037.38
2023-01-08T16:59:47.941Z,99037.25
2023-01-08T17:02:50.890Z,99031.91
2023-01-08T17:05:52.504Z,99035.31
2023-01-08T17:08:54.080Z,99031.91
2023-01-08T17:11:55.848Z,99021.88
2023-01-08T17:14:57.597Z,99012.63
2023-01-08T17:18:00.477Z,99008.03
2023-01-08T17:21:02.597Z,99000.28
2023-01-08T17:24:05.027Z,98991.53
2023-01-08T17:27:06.698Z,98989.91
2023-01-08T17:30:09.735Z,98978.59
2023-01-08T17:33:14.669Z,98978.75
2023-01-08T17:36:18.141Z,98976.91
2023-01-08T17:39:19.684Z,98961.66
2023-01-08T17:42:24.508Z,98957.91
2023-01-08T17:45:26.130Z,98957.53
2023-01-08T17:48:29.141Z,98955.00
2023-01-08T17:51:32.288Z,98941.97
2023-01-08T17:54:34.159Z,98936.84
2023-01-08T17:57:35.761Z,98928.50
2023-01-08T18:00:37.428Z,98919.13
2023-01-08T18:03:40.430Z,98917.44
2023-01-08T18:06:42.644Z,98923.53
2023-01-08T18:09:44.959Z,98923.59
2023-01-08T18:12:46.592Z,98929.28
2023-01-08T18:15:48.473Z,98927.22
2023-01-08T18:18:52.065Z,98928.72
2023-01-08T18:21:53.624Z,98921.53
2023-01-08T18:24:55.239Z,98929.66
2023-01-08T18:27:56.758Z,98923.13
2023-01-08T18:30:58.385Z,98919.56
2023-01-08T18:34:03.596Z,98923.03
2023-01-08T18:37:05.245Z,98908.13
2023-01-08T18:40:07.729Z,98911.09
2023-01-08T18:43:09.683Z,98899.34
2023-01-08T18:46:11.393Z,98899.66
2023-01-08T18:49:14.572Z,98900.44
2023-01-08T18:52:16.410Z,98904.88
2023-01-08T18:55:18.219Z,98892.09
2023-01-08T18:58:19.766Z,98879.50
2023-01-08T19:01:21.805Z,98859.91
2023-01-08T19:04:24.770Z,98862.03
2023-01-08T19:07:26.854Z,98846.75
2023-01-08T19:10:28.442Z,98845.72
2023-01-08T19:13:30.084Z,98848.13
2023-01-08T19:16:31.861Z,98845.81
2023-01-08T19:19:35.027Z,98843.19
2023-01-08T19:22:36.659Z,98840.00
2023-01-08T19:25:38.625Z,98831.72
2023-01-08T19:28:40.763Z,98834.66
2023-01-08T19:31:42.426Z,98828.19
2023-01-08T19:34:45.519Z,98816.06
2023-01-08T19:37:47.222Z,98818.94
2023-01-08T19:40:48.846Z,98812.44
2023-01-08T19:43:50.442Z,98800.06
2023-01-08T19:46:52.161Z,98788.31
2023-01-08T19:49:55.143Z,98786.34
2023-01-08T19:52:56.783Z,98779.06
2023-01-08T19:56:02.480Z,98773.38
2023-01-08T19:59:04.056Z,98765.03
2023-01-08T20:02:05.752Z,98761.06
2023-01-08T20:05:09.820Z,98759.47
2023-01-08T20:08:11.377Z,98756.63
2023-01-08T20:11:15.363Z,98753.13
2023-01-08T20:14:17.266Z,98746.16
2023-01-08T20:17:21.509Z,98757.53
2023-01-08T20:20:24.511Z,98740.13
2023-01-08T20:23:26.076Z,98747.16
2023-01-08T20:26:30.224Z,98734.72
2023-01-08T20:29:32.822Z,98736.94
2023-01-08T20:32:34.509Z,98726.66
2023-01-08T20:35:37.692Z,98722.78
2023-01-08T20:38:39.602Z,98718.47
2023-01-08T20:41:46.714Z,98719.47
2023-01-08T20:44:57.291Z,98715.75
2023-01-08T20:47:58.903Z,98712.88
2023-01-08T20:51:04.275Z,98705.94
2023-01-08T20:54:08.368Z,98704.44
2023-01-08T20:57:10.038Z,98700.25
2023-01-08T21:00:12.683Z,98698.56
2023-01-08T21:03:14.640Z,98695.25
2023-01-08T21:06:19.368Z,98678.38
2023-01-08T21:09:21.089Z,98686.09
2023-01-08T21:12:22.761Z,98682.31
2023-01-08T21:15:24.711Z,98676.09
2023-01-08T21:18:27.173Z,98666.75
2023-01-08T21:21:32.923Z,98673.47
2023-01-08T21:24:34.605Z,98666.19
2023-01-08T21:27:36.311Z,98663.66
2023-01-08T21:30:37.959Z,98651.34
2023-01-08T21:33:40.381Z,98650.06
2023-01-08T21:36:43.365Z,98641.53
2023-01-08T21:39:44.987Z,98642.41
2023-01-08T21:43:05.509Z,98634.81
2023-01-08T21:46:07.211Z,98618.16
2023-01-08T21:49:08.821Z,98611.22
2023-01-08T21:52:30.687Z,98615.22
2023-01-08T21:55:33.586Z,98599.78
2023-01-08T21:58:35.559Z,98603.97
2023-01-08T22:01:37.241Z,98597.25
2023-01-08T22:04:38.869Z,98595.53
2023-01-08T22:07:41.831Z,98596.34
2023-01-08T22:10:43.749Z,98586.00
2023-01-08T22:13:45.396Z,98582.66
2023-01-08T22:16:47.158Z,98579.50
2023-01-08T22:19:48.788Z,98571.28
2023-01-08T22:27:56.146Z,98550.94
2023-01-08T22:30:57.853Z,98556.44
2023-01-08T22:33:59.857Z,98542.75
2023-01-08T22:37:02.043Z,98547.63
2023-01-08T22:40:04.776Z,98535.13
2023-01-08T22:43:07.910Z,98538.22
2023-01-08T22:46:12.405Z,98538.78
2023-01-08T22:49:14.426Z,98534.22
2023-01-08T22:52:16.206Z,98546.50
2023-01-08T22:55:18.212Z,98537.00
2023-01-08T22:58:21.304Z,98534.19
2023-01-08T23:01:24.755Z,98532.00
2023-01-08T23:04:26.699Z,98525.75
2023-01-08T23:07:28.590Z,98531.72
2023-01-08T23:13:48.088Z,98520.13
2023-01-08T23:16:49.878Z,98533.09
2023-01-08T23:19:51.611Z,98528.09
2023-01-08T23:22:53.608Z,98519.22
2023-01-08T23:25:55.467Z,98523.53
2023-01-08T23:29:00.563Z,98524.72
2023-01-08T23:32:02.257Z,98525.22
2023-01-08T23:35:04.629Z,98525.13
2023-01-08T23:38:06.293Z,98518.13
2023-01-08T23:41:07.976Z,98530.06
2023-01-08T23:44:14.226Z,98516.56
2023-01-08T23:47:16.124Z,98528.81
2023-01-08T23:50:17.893Z,98532.69
2023-01-08T23:53:19.767Z,98526.56
2023-01-08T23:56:27.239Z,98535.66
2023-01-08T23:59:30.265Z,98535.09
